Time;durP1;ratioP1;P1;durP2;ratioP2;P2;SDS_P1;SDS_P2;PMS_P1;PMS_P2;Temp;Humidity;BMP_temperature;BMP_pressure;BME280_temperature;BME280_humidity;BME280_pressure;Samples;Min_cycle;Max_cycle;Signal;HPM_P1;HPM_P2
2021/08/19 00:00:25;;;;;;;8.30;4.13;;;;;;;19.26;93.08;96308.22;4976063;28;20584;-68
2021/08/19 00:02:51;;;;;;;10.80;4.28;;;;;;;19.12;93.16;96311.31;4976014;28;20215;-67
2021/08/19 00:05:18;;;;;;;12.20;4.35;;;;;;;18.99;93.96;96306.13;4975892;28;20231;-68
2021/08/19 00:07:46;;;;;;;10.25;4.10;;;;;;;19.09;93.13;96301.06;4975641;28;20619;-68
2021/08/19 00:10:13;;;;;;;8.38;3.83;;;;;;;19.05;93.41;96303.38;4976351;28;20774;-67
2021/08/19 00:12:39;;;;;;;7.72;3.95;;;;;;;19.08;92.85;96302.94;4975142;28;20204;-67
2021/08/19 00:15:07;;;;;;;9.07;3.85;;;;;;;19.29;92.56;96290.91;4976267;28;20231;-67
2021/08/19 00:17:35;;;;;;;8.70;3.85;;;;;;;19.27;93.09;96295.66;4975661;28;20203;-68
2021/08/19 00:20:01;;;;;;;8.20;4.60;;;;;;;19.01;93.37;96286.16;4976150;28;20230;-67
2021/08/19 00:22:30;;;;;;;8.13;4.35;;;;;;;19.28;92.90;96294.63;4975373;28;20227;-67
2021/08/19 00:24:57;;;;;;;8.13;4.40;;;;;;;19.03;93.87;96280.59;4975930;28;20224;-67
2021/08/19 00:27:23;;;;;;;9.27;4.70;;;;;;;18.99;93.36;96290.09;4974873;28;20211;-67
2021/08/19 00:29:50;;;;;;;9.05;4.60;;;;;;;19.12;92.43;96287.28;4974824;28;20233;-67
2021/08/19 00:32:17;;;;;;;8.60;4.75;;;;;;;19.12;92.31;96292.63;4975489;28;20203;-68
2021/08/19 00:34:44;;;;;;;10.00;4.88;;;;;;;19.25;92.45;96289.75;4976089;28;20231;-68
2021/08/19 00:37:11;;;;;;;8.38;4.18;;;;;;;19.15;92.26;96292.97;4974553;28;20215;-67
2021/08/19 00:39:38;;;;;;;11.85;4.68;;;;;;;19.27;92.29;96293.00;4975656;28;20222;-68
2021/08/19 00:42:05;;;;;;;11.27;4.75;;;;;;;19.02;92.94;96285.13;4975512;28;20227;-67
2021/08/19 00:44:32;;;;;;;8.73;4.70;;;;;;;19.01;92.43;96286.16;4975694;28;20219;-67
2021/08/19 00:46:58;;;;;;;7.65;4.55;;;;;;;18.95;92.66;96288.91;4974616;28;20203;-68
2021/08/19 00:49:25;;;;;;;9.05;4.70;;;;;;;18.97;92.49;96284.19;4974423;28;20210;-67
2021/08/19 00:51:54;;;;;;;9.15;5.07;;;;;;;19.21;91.82;96281.38;4975324;28;20203;-68
2021/08/19 00:54:24;;;;;;;8.07;4.65;;;;;;;19.08;92.77;96280.75;4975546;28;20239;-67
2021/08/19 00:56:53;;;;;;;10.02;4.90;;;;;;;19.06;92.67;96282.84;4973500;28;20682;-67
2021/08/19 00:59:22;;;;;;;11.20;4.88;;;;;;;19.08;91.49;96276.22;4975064;28;20276;-67
2021/08/19 01:01:49;;;;;;;11.50;4.95;;;;;;;19.03;91.36;96277.94;4975507;28;20227;-67
2021/08/19 01:04:15;;;;;;;9.25;5.05;;;;;;;18.84;92.26;96276.34;4975870;28;20227;-67
2021/08/19 01:06:42;;;;;;;10.00;5.00;;;;;;;18.98;91.20;96272.47;4974356;28;20214;-68
2021/08/19 01:09:10;;;;;;;11.05;4.85;;;;;;;19.12;91.17;96281.94;4974958;28;20226;-67
2021/08/19 01:11:40;;;;;;;9.95;5.15;;;;;;;19.13;91.25;96276.38;4975618;28;20245;-67
2021/08/19 01:14:09;;;;;;;9.50;5.18;;;;;;;18.90;92.47;96272.75;4975160;28;20223;-68
2021/08/19 01:16:36;;;;;;;10.45;4.30;;;;;;;18.84;91.90;96273.69;4974249;28;20204;-67
2021/08/19 01:19:03;;;;;;;10.25;4.22;;;;;;;18.72;93.06;96278.16;4974773;28;20739;-68
2021/08/19 01:21:29;;;;;;;8.90;5.00;;;;;;;18.84;92.67;96275.53;4975698;28;20995;-67
2021/08/19 01:23:56;;;;;;;7.97;4.35;;;;;;;18.91;91.98;96273.59;4974716;28;20231;-68
2021/08/19 01:26:24;;;;;;;7.80;4.70;;;;;;;19.15;91.86;96278.81;4974853;28;20211;-67
2021/08/19 01:28:55;;;;;;;11.50;4.93;;;;;;;18.96;92.90;96271.84;4974864;28;20222;-68
2021/08/19 01:31:24;;;;;;;9.10;4.70;;;;;;;19.14;91.25;96274.50;4975116;28;20301;-67
2021/08/19 01:33:50;;;;;;;9.05;4.55;;;;;;;18.90;92.04;96280.75;4974877;28;20223;-67
2021/08/19 01:36:17;;;;;;;9.88;4.60;;;;;;;19.02;92.03;96278.97;4974379;28;20207;-67
2021/08/19 01:38:45;;;;;;;9.70;4.97;;;;;;;19.05;92.49;96276.66;4973953;28;20216;-68
2021/08/19 01:41:12;;;;;;;8.55;4.60;;;;;;;19.09;91.73;96277.03;4977743;28;20226;-67
2021/08/19 01:43:39;;;;;;;11.00;5.05;;;;;;;19.03;92.43;96277.94;4978227;28;20280;-67
2021/08/19 01:46:08;;;;;;;7.90;5.00;;;;;;;19.26;91.42;96275.34;4977048;28;20210;-67
2021/08/19 01:48:36;;;;;;;11.30;4.68;;;;;;;18.98;92.15;96277.78;4978040;28;20327;-67
2021/08/19 01:51:03;;;;;;;6.97;4.25;;;;;;;19.06;91.18;96282.84;4978299;28;20211;-67
2021/08/19 01:53:29;;;;;;;8.88;4.72;;;;;;;19.02;91.34;96278.97;4977652;28;20230;-67
2021/08/19 01:55:56;;;;;;;7.60;4.30;;;;;;;19.03;92.30;96273.41;4977351;28;20207;-68
2021/08/19 01:58:22;;;;;;;11.68;5.32;;;;;;;19.00;91.81;96279.19;4974704;28;20694;-68
2021/08/19 02:00:49;;;;;;;9.80;4.55;;;;;;;19.17;90.90;96274.03;4977435;28;20203;-67
2021/08/19 02:03:17;;;;;;;8.60;5.10;;;;;;;19.25;91.21;96274.53;4977649;28;21229;-67
2021/08/19 02:05:48;;;;;;;10.15;4.38;;;;;;;18.99;92.35;96271.38;4977772;28;20737;-67
2021/08/19 02:08:14;;;;;;;11.93;5.05;;;;;;;18.93;91.78;96275.78;4978398;28;20208;-67
2021/08/19 02:10:41;;;;;;;9.18;5.10;;;;;;;19.08;90.98;96275.41;4977652;28;20729;-68
2021/08/19 02:13:07;;;;;;;11.55;4.90;;;;;;;18.99;91.75;96271.38;4978436;28;20254;-67
2021/08/19 02:15:34;;;;;;;9.23;4.88;;;;;;;19.09;90.76;96271.69;4977527;28;20623;-68
2021/08/19 02:18:00;;;;;;;10.30;4.65;;;;;;;18.95;91.37;96270.22;4977643;28;20593;-68
2021/08/19 02:20:28;;;;;;;10.50;5.07;;;;;;;19.01;91.74;96275.47;4977359;28;20211;-67
2021/08/19 02:22:59;;;;;;;8.80;4.40;;;;;;;19.18;89.93;96276.50;4978349;28;20231;-67
2021/08/19 02:25:26;;;;;;;8.25;4.85;;;;;;;18.89;91.12;96271.16;4976414;28;20306;-68
2021/08/19 02:27:53;;;;;;;10.35;5.00;;;;;;;19.06;90.45;96272.97;4977911;28;20280;-68
2021/08/19 02:30:19;;;;;;;7.65;4.43;;;;;;;18.99;90.76;96268.72;4977304;28;20348;-68
2021/08/19 02:32:52;;;;;;;10.77;4.65;;;;;;;19.07;91.15;96268.44;4975161;28;20203;-67
2021/08/19 02:35:19;;;;;;;12.13;5.20;;;;;;;18.88;91.30;96272.19;4976429;28;20245;-67
2021/08/19 02:37:47;;;;;;;8.07;4.57;;;;;;;19.08;91.00;96272.72;4977550;28;20211;-67
2021/08/19 02:40:14;;;;;;;5.78;3.95;;;;;;;18.93;91.70;96270.44;4977438;28;20287;-67
2021/08/19 02:42:40;;;;;;;6.95;4.38;;;;;;;18.98;91.40;96275.13;4977520;28;20234;-68
2021/08/19 02:45:07;;;;;;;10.25;4.93;;;;;;;19.07;90.97;96263.13;4977475;28;21356;-67
2021/08/19 02:47:34;;;;;;;9.32;4.63;;;;;;;19.00;91.53;96270.34;4976359;28;20210;-67
2021/08/19 02:50:00;;;;;;;7.35;4.50;;;;;;;18.82;92.38;96270.41;4977159;28;20630;-68
2021/08/19 02:52:27;;;;;;;11.23;4.85;;;;;;;18.96;91.67;96267.34;4976800;28;20590;-68
2021/08/19 02:54:54;;;;;;;8.25;4.60;;;;;;;19.12;91.75;96263.25;4977262;28;20597;-67
2021/08/19 02:57:21;;;;;;;8.20;4.43;;;;;;;18.90;91.62;96264.75;4974186;28;20212;-68
2021/08/19 02:59:47;;;;;;;8.48;4.80;;;;;;;18.98;91.12;96270.59;4977274;28;20680;-68
2021/08/19 03:02:14;;;;;;;7.75;4.40;;;;;;;18.91;91.72;96269.06;4977126;28;20227;-67
2021/08/19 03:04:41;;;;;;;8.48;4.85;;;;;;;19.11;91.12;96269.63;4976498;28;20635;-68
2021/08/19 03:07:09;;;;;;;9.27;4.22;;;;;;;18.98;91.21;96269.78;4976170;28;20582;-68
2021/08/19 03:09:36;;;;;;;9.50;4.90;;;;;;;19.08;90.94;96278.06;4977450;28;20602;-68
2021/08/19 03:12:04;;;;;;;8.57;4.95;;;;;;;19.29;90.48;96274.88;4975756;28;20667;-67
2021/08/19 03:14:31;;;;;;;7.05;4.28;;;;;;;19.00;91.16;96273.03;4976872;28;20227;-68
2021/08/19 03:16:57;;;;;;;7.82;4.10;;;;;;;18.99;91.22;96268.72;4976448;28;20587;-67
2021/08/19 03:19:24;;;;;;;7.47;4.28;;;;;;;18.99;91.36;96266.06;4976663;28;20211;-67
2021/08/19 03:21:50;;;;;;;10.82;5.10;;;;;;;18.94;91.26;96274.75;4976435;28;20227;-68
2021/08/19 03:24:17;;;;;;;11.00;4.75;;;;;;;19.10;90.47;96271.47;4977739;28;20224;-68
2021/08/19 03:26:43;;;;;;;8.00;4.93;;;;;;;19.10;90.71;96259.97;4975764;28;20211;-68
2021/08/19 03:29:11;;;;;;;9.50;4.50;;;;;;;19.25;90.71;96268.38;4976396;28;20203;-68
2021/08/19 03:31:38;;;;;;;10.93;4.45;;;;;;;19.13;90.35;96256.84;4976781;28;20211;-68
2021/08/19 03:34:04;;;;;;;6.97;4.40;;;;;;;19.01;90.19;96263.97;4976802;28;20231;-68
2021/08/19 03:36:31;;;;;;;6.40;3.97;;;;;;;19.06;89.68;96261.47;4975360;28;20780;-67
2021/08/19 03:38:57;;;;;;;7.55;4.53;;;;;;;19.03;90.60;96265.38;4976436;28;20214;-67
2021/08/19 03:41:23;;;;;;;7.47;4.15;;;;;;;19.06;90.61;96264.94;4976797;28;20203;-67
2021/08/19 03:43:50;;;;;;;7.13;4.72;;;;;;;18.97;90.80;96268.94;4975928;28;20235;-67
2021/08/19 03:46:18;;;;;;;7.55;4.30;;;;;;;19.12;90.79;96265.91;4975699;28;20203;-68
2021/08/19 03:48:45;;;;;;;9.10;4.63;;;;;;;18.98;90.49;96264.44;4976459;28;20303;-68
2021/08/19 03:51:11;;;;;;;6.28;3.92;;;;;;;19.03;90.43;96264.56;4976172;28;20630;-67
2021/08/19 03:53:38;;;;;;;7.55;4.35;;;;;;;19.02;90.61;96265.63;4975751;28;20223;-67
2021/08/19 03:56:05;;;;;;;7.43;4.22;;;;;;;18.98;91.31;96269.78;4975719;28;20211;-67
2021/08/19 03:58:31;;;;;;;7.95;4.30;;;;;;;18.76;92.24;96267.84;4973296;28;20195;-67
2021/08/19 04:00:58;;;;;;;9.05;3.92;;;;;;;18.90;91.67;96272.75;4975910;28;20220;-67
2021/08/19 04:03:26;;;;;;;11.43;4.45;;;;;;;19.06;91.10;96266.81;4976513;28;20243;-67
2021/08/19 04:05:52;;;;;;;6.72;4.20;;;;;;;18.90;91.49;96262.06;4975703;28;20222;-67
2021/08/19 04:08:19;;;;;;;8.70;4.63;;;;;;;18.93;91.60;96264.31;4975950;28;20199;-68
2021/08/19 04:10:45;;;;;;;8.75;4.25;;;;;;;18.82;91.75;96269.59;4975751;28;21333;-68
2021/08/19 04:13:13;;;;;;;7.43;4.50;;;;;;;18.89;91.60;96270.31;4976194;28;20199;-67
2021/08/19 04:15:39;;;;;;;7.65;4.07;;;;;;;18.87;91.12;96267.88;4975226;28;20564;-67
2021/08/19 04:18:06;;;;;;;6.82;4.18;;;;;;;18.71;92.13;96268.53;4975549;28;20203;-68
2021/08/19 04:20:34;;;;;;;7.20;4.70;;;;;;;19.06;91.28;96264.94;4976088;28;20203;-67
2021/08/19 04:23:00;;;;;;;10.98;4.45;;;;;;;18.92;90.49;96273.34;4976628;28;20234;-68
2021/08/19 04:25:26;;;;;;;9.75;4.50;;;;;;;18.98;90.36;96273.25;4974465;28;20227;-67
2021/08/19 04:27:53;;;;;;;6.32;4.65;;;;;;;18.94;90.98;96271.28;4976521;28;20222;-68
2021/08/19 04:30:20;;;;;;;6.05;4.10;;;;;;;18.97;91.12;96274.28;4975579;28;20207;-67
2021/08/19 04:32:47;;;;;;;10.57;4.65;;;;;;;18.90;91.49;96272.75;4975765;28;20199;-68
2021/08/19 04:35:13;;;;;;;7.68;4.15;;;;;;;18.82;91.75;96269.59;4975056;28;20235;-67
2021/08/19 04:37:41;;;;;;;7.82;4.50;;;;;;;19.08;90.86;96264.72;4976490;28;20207;-68
2021/08/19 04:40:09;;;;;;;7.57;4.40;;;;;;;19.12;90.81;96271.25;4975110;28;20218;-68
2021/08/19 04:42:35;;;;;;;9.77;4.43;;;;;;;19.04;90.34;96269.69;4975160;28;20235;-68
2021/08/19 04:45:02;;;;;;;12.43;4.50;;;;;;;19.09;90.62;96269.84;4975705;28;20694;-67
2021/08/19 04:47:28;;;;;;;8.65;4.57;;;;;;;19.12;89.94;96269.38;4975320;28;20214;-68
2021/08/19 04:49:55;;;;;;;7.03;3.95;;;;;;;19.02;91.45;96268.28;4974140;28;20211;-67
2021/08/19 04:52:21;;;;;;;10.65;4.38;;;;;;;19.09;90.78;96269.03;4975127;28;20211;-67
2021/08/19 04:54:49;;;;;;;6.95;4.18;;;;;;;19.31;90.40;96267.44;4974449;28;20762;-68
2021/08/19 04:57:15;;;;;;;8.93;4.22;;;;;;;19.09;91.00;96261.00;4970872;28;20203;-67
2021/08/19 04:59:42;;;;;;;9.68;4.63;;;;;;;19.02;90.40;96261.06;4974707;28;20207;-67
2021/08/19 05:02:08;;;;;;;9.30;4.53;;;;;;;19.11;90.55;96258.94;4975089;28;20207;-68
2021/08/19 05:04:35;;;;;;;8.70;4.13;;;;;;;19.19;90.26;96258.59;4974201;28;20702;-68
2021/08/19 05:07:01;;;;;;;7.57;4.05;;;;;;;19.12;91.04;96260.56;4974439;28;20211;-68
2021/08/19 05:09:27;;;;;;;10.68;4.65;;;;;;;19.26;90.06;96262.81;4974627;28;20218;-68
2021/08/19 05:11:55;;;;;;;7.00;3.75;;;;;;;19.42;91.01;96269.31;4974172;28;20683;-67
2021/08/19 05:14:22;;;;;;;8.18;4.20;;;;;;;19.24;91.06;96274.75;4973752;28;20414;-68
2021/08/19 05:16:48;;;;;;;8.93;4.15;;;;;;;19.27;90.80;96275.13;4973940;28;20552;-68
2021/08/19 05:19:14;;;;;;;7.90;4.40;;;;;;;19.30;90.65;96274.66;4975078;28;20207;-67
2021/08/19 05:21:41;;;;;;;10.43;4.03;;;;;;;19.20;90.25;96279.75;4974805;28;20480;-68
2021/08/19 05:24:07;;;;;;;6.88;4.22;;;;;;;19.22;89.80;96279.50;4975184;28;20226;-68
2021/08/19 05:26:34;;;;;;;11.80;4.55;;;;;;;19.12;90.51;96279.28;4974157;28;20202;-68
2021/08/19 05:29:02;;;;;;;5.55;3.90;;;;;;;19.37;90.37;96283.38;4975179;28;20208;-68
2021/08/19 05:31:28;;;;;;;10.13;4.20;;;;;;;19.34;89.90;96283.84;4974786;28;20845;-67
2021/08/19 05:33:55;;;;;;;7.70;4.10;;;;;;;19.15;90.29;96286.81;4975024;28;20219;-68
2021/08/19 05:36:22;;;;;;;8.07;3.78;;;;;;;19.13;89.69;96283.53;4974224;28;20239;-68
2021/08/19 05:38:48;;;;;;;6.57;3.85;;;;;;;19.27;88.11;96287.66;4975317;28;20765;-68
2021/08/19 05:41:14;;;;;;;7.07;4.00;;;;;;;19.34;89.51;96291.06;4974832;28;20207;-68
2021/08/19 05:43:41;;;;;;;6.80;3.70;;;;;;;19.32;89.92;96290.44;4974409;28;20234;-68
2021/08/19 05:46:09;;;;;;;6.85;3.90;;;;;;;19.56;89.75;96289.44;4974690;28;20214;-68
2021/08/19 05:48:36;;;;;;;7.72;3.97;;;;;;;19.05;89.41;96297.19;4975095;28;20208;-68
2021/08/19 05:51:02;;;;;;;8.07;3.53;;;;;;;19.09;88.55;96293.91;4974636;28;20221;-68
2021/08/19 05:53:29;;;;;;;6.40;3.88;;;;;;;19.29;87.90;96302.41;4974076;28;20234;-68
2021/08/19 05:55:55;;;;;;;6.70;3.80;;;;;;;19.35;88.50;96300.69;4974706;28;20211;-68
2021/08/19 05:58:21;;;;;;;8.52;3.75;;;;;;;19.50;88.77;96298.38;4971841;28;20249;-68
2021/08/19 06:00:48;;;;;;;6.47;3.67;;;;;;;19.27;89.64;96306.34;4974124;28;20208;-68
2021/08/19 06:03:16;;;;;;;7.05;4.20;;;;;;;19.66;88.53;96295.84;4974472;28;20330;-68
2021/08/19 06:05:43;;;;;;;8.00;4.00;;;;;;;19.61;88.12;96299.22;4973915;28;20628;-68
2021/08/19 06:08:09;;;;;;;6.25;3.63;;;;;;;19.46;89.12;96299.88;4973171;28;20680;-68
2021/08/19 06:10:36;;;;;;;6.90;3.28;;;;;;;19.57;89.48;96295.38;4974939;28;20218;-68
2021/08/19 06:13:02;;;;;;;9.20;3.95;;;;;;;19.78;89.52;96300.16;4973859;28;20200;-68
2021/08/19 06:15:29;;;;;;;6.45;3.50;;;;;;;19.67;87.13;96305.50;4973926;28;20219;-68
2021/08/19 06:17:55;;;;;;;5.40;3.25;;;;;;;19.86;86.65;96297.13;4974870;28;20218;-68
2021/08/19 06:20:23;;;;;;;4.93;3.17;;;;;;;19.70;86.16;96292.50;4974251;28;20996;-68
2021/08/19 06:22:51;;;;;;;6.00;3.10;;;;;;;19.80;84.95;96302.59;4973940;28;20223;-68
2021/08/19 06:25:18;;;;;;;5.40;2.90;;;;;;;19.89;85.17;96301.22;4974455;28;20234;-68
2021/08/19 06:27:44;;;;;;;4.82;2.83;;;;;;;19.58;85.67;96301.53;4976046;28;20589;-68
2021/08/19 06:30:12;;;;;;;6.70;2.95;;;;;;;19.76;85.58;96312.16;4977942;28;20199;-68
2021/08/19 06:32:38;;;;;;;8.70;3.30;;;;;;;19.81;85.26;96302.38;4977128;28;20215;-68
2021/08/19 06:35:06;;;;;;;4.07;2.88;;;;;;;19.77;84.70;96301.22;4977611;28;20250;-68
2021/08/19 06:37:34;;;;;;;6.55;2.95;;;;;;;19.83;84.89;96297.63;4976695;28;20206;-67
2021/08/19 06:40:00;;;;;;;6.50;2.70;;;;;;;20.13;84.74;96302.88;4977208;28;20211;-68
2021/08/19 06:42:27;;;;;;;5.93;2.78;;;;;;;19.90;83.90;96300.19;4977381;28;20211;-68
2021/08/19 06:44:53;;;;;;;7.13;2.72;;;;;;;19.62;85.18;96311.53;4977377;28;20230;-68
2021/08/19 06:47:19;;;;;;;3.92;2.40;;;;;;;19.60;84.24;96308.28;4976666;28;20207;-68
2021/08/19 06:49:46;;;;;;;3.63;2.45;;;;;;;19.77;83.28;96303.88;4977220;28;20211;-67
2021/08/19 06:52:13;;;;;;;7.25;2.60;;;;;;;19.83;84.43;96302.97;4977602;28;20215;-68
2021/08/19 06:54:40;;;;;;;3.75;2.47;;;;;;;20.23;83.67;96309.25;4976766;28;20227;-68
2021/08/19 06:57:07;;;;;;;3.28;2.28;;;;;;;20.03;82.59;96305.31;4974297;28;20368;-68
2021/08/19 06:59:33;;;;;;;4.28;2.25;;;;;;;19.81;83.04;96305.03;4977043;28;20203;-68
2021/08/19 07:02:00;;;;;;;3.75;2.28;;;;;;;20.27;81.57;96310.41;4977528;28;20211;-68
2021/08/19 07:04:26;;;;;;;2.67;2.08;;;;;;;20.15;81.66;96303.44;4976721;28;20239;-68
2021/08/19 07:06:53;;;;;;;8.15;2.00;;;;;;;19.82;82.14;96298.66;4976683;28;20210;-67
2021/08/19 07:09:20;;;;;;;2.75;1.92;;;;;;;19.83;81.56;96307.47;4976814;28;20239;-68
2021/08/19 07:11:49;;;;;;;3.70;2.13;;;;;;;20.25;81.83;96297.28;4976758;28;20210;-68
2021/08/19 07:14:15;;;;;;;5.30;2.15;;;;;;;19.96;80.98;96302.75;4977073;28;20230;-68
2021/08/19 07:16:42;;;;;;;3.75;2.30;;;;;;;19.71;80.94;96304.78;4976279;28;20667;-68
2021/08/19 07:19:08;;;;;;;2.63;1.90;;;;;;;19.77;81.23;96298.53;4976660;28;20617;-67
2021/08/19 07:21:34;;;;;;;3.53;1.83;;;;;;;19.77;81.58;96303.09;4976522;28;20234;-67
2021/08/19 07:24:01;;;;;;;3.50;2.00;;;;;;;20.31;80.79;96306.22;4977175;28;20630;-68
2021/08/19 07:26:27;;;;;;;2.65;1.85;;;;;;;20.81;79.58;96296.56;4975408;28;20210;-68
2021/08/19 07:28:56;;;;;;;2.70;1.80;;;;;;;20.97;77.73;96302.78;4976292;28;20215;-68
2021/08/19 07:31:22;;;;;;;5.38;2.08;;;;;;;20.62;77.23;96297.75;4976716;28;20234;-68
2021/08/19 07:33:49;;;;;;;2.97;2.00;;;;;;;20.71;77.25;96296.34;4975634;28;20703;-68
2021/08/19 07:36:15;;;;;;;4.45;1.70;;;;;;;20.68;76.16;96299.50;4976082;28;20211;-68
2021/08/19 07:38:42;;;;;;;4.15;1.77;;;;;;;20.47;76.34;96300.16;4976418;28;20679;-68
2021/08/19 07:41:08;;;;;;;2.40;1.50;;;;;;;20.42;76.32;96292.00;4976323;28;20210;-68
2021/08/19 07:43:35;;;;;;;2.28;1.67;;;;;;;20.93;76.83;96290.13;4976551;28;20227;-68
2021/08/19 07:46:03;;;;;;;2.35;1.50;;;;;;;20.79;75.73;96299.50;4975486;28;20222;-68
2021/08/19 07:48:30;;;;;;;4.03;1.65;;;;;;;21.05;74.96;96294.38;4975985;28;20213;-68
2021/08/19 07:50:56;;;;;;;3.22;1.80;;;;;;;21.04;74.64;96297.28;4975787;28;20203;-68
2021/08/19 07:53:23;;;;;;;2.80;1.38;;;;;;;20.74;73.48;96298.59;4976362;28;20287;-68
2021/08/19 07:55:49;;;;;;;2.30;1.60;;;;;;;20.94;74.20;96292.56;4975057;28;20207;-68
2021/08/19 07:58:16;;;;;;;3.20;1.88;;;;;;;20.93;72.93;96290.94;4973558;28;20222;-68
2021/08/19 08:00:42;;;;;;;2.75;1.42;;;;;;;20.74;72.44;96295.91;4975961;28;20210;-68
2021/08/19 08:03:10;;;;;;;1.70;1.00;;;;;;;20.67;73.24;96306.72;4976538;28;20203;-67
2021/08/19 08:05:37;;;;;;;4.45;1.25;;;;;;;20.89;72.66;96311.22;4974924;28;20218;-68
2021/08/19 08:08:06;;;;;;;3.55;1.50;;;;;;;21.28;72.35;96312.22;4976098;28;20210;-68
2021/08/19 08:10:34;;;;;;;1.20;1.10;;;;;;;21.36;70.02;96303.75;4976629;28;20226;-68
2021/08/19 08:13:01;;;;;;;3.40;1.25;;;;;;;21.34;70.13;96309.38;4975818;28;20210;-68
2021/08/19 08:15:27;;;;;;;3.38;1.20;;;;;;;21.39;70.98;96312.16;4975479;28;20226;-68
2021/08/19 08:17:54;;;;;;;2.20;1.30;;;;;;;21.21;70.10;96315.03;4976546;28;20211;-68
2021/08/19 08:20:22;;;;;;;2.13;1.17;;;;;;;21.08;71.06;96309.97;4976083;28;20207;-68
2021/08/19 08:22:51;;;;;;;2.53;1.30;;;;;;;20.81;70.59;96307.28;4975646;28;20207;-67
2021/08/19 08:25:18;;;;;;;1.67;1.05;;;;;;;21.13;71.49;96311.91;4975096;28;20231;-68
2021/08/19 08:27:56;;;;;;;1.90;1.50;;;;;;;21.24;71.06;96314.53;4975527;28;20206;-67
2021/08/19 08:30:23;;;;;;;4.95;1.60;;;;;;;21.19;70.40;96314.44;4975800;28;20679;-68
2021/08/19 08:32:49;;;;;;;3.22;1.60;;;;;;;21.45;69.33;96319.22;4976485;28;20218;-68
2021/08/19 08:35:16;;;;;;;1.90;1.58;;;;;;;21.37;69.68;96322.28;4974668;28;20719;-68
2021/08/19 08:37:45;;;;;;;3.85;1.55;;;;;;;21.64;69.85;96328.72;4975393;28;20595;-68
2021/08/19 08:40:16;;;;;;;2.85;1.95;;;;;;;21.69;69.78;96318.03;4975537;28;20211;-68
2021/08/19 08:42:43;;;;;;;3.97;1.70;;;;;;;21.85;68.92;96317.25;4976123;28;20683;-68
2021/08/19 08:45:10;;;;;;;2.17;1.67;;;;;;;22.01;67.18;96319.94;4974611;28;20231;-68
2021/08/19 08:47:38;;;;;;;4.38;1.90;;;;;;;22.30;66.52;96322.28;4975312;28;20211;-68
2021/08/19 08:50:06;;;;;;;4.05;1.70;;;;;;;22.59;66.21;96322.94;4974775;28;20454;-68
2021/08/19 08:52:34;;;;;;;1.90;1.63;;;;;;;22.07;66.93;96319.75;4975478;28;20222;-68
2021/08/19 08:55:03;;;;;;;2.38;1.63;;;;;;;22.35;66.06;96316.97;4975247;28;20231;-68
2021/08/19 08:57:30;;;;;;;2.63;1.58;;;;;;;22.22;66.03;96319.16;4972155;28;20213;-68
2021/08/19 08:59:57;;;;;;;2.40;1.80;;;;;;;22.19;65.46;96315.09;4975495;28;20975;-68
2021/08/19 09:02:23;;;;;;;2.90;1.60;;;;;;;22.06;65.52;96320.00;4975118;28;20213;-68
2021/08/19 09:05:13;;;;;;;3.13;1.70;;;;;;;22.87;63.04;96310.94;4975480;28;20238;-68
2021/08/19 09:07:39;;;;;;;2.50;1.42;;;;;;;22.24;64.74;96317.84;4974884;28;20547;-68
2021/08/19 09:10:08;;;;;;;3.90;1.65;;;;;;;23.12;64.45;96319.31;4974792;28;20211;-68
2021/08/19 09:12:39;;;;;;;2.15;1.50;;;;;;;23.08;62.17;96310.13;4975413;28;20218;-68
2021/08/19 09:15:09;;;;;;;4.57;1.77;;;;;;;23.25;62.24;96305.47;4975063;28;20326;-68
2021/08/19 09:17:43;;;;;;;3.38;1.52;;;;;;;23.40;60.64;96311.81;4973983;28;20222;-68
2021/08/19 09:20:12;;;;;;;1.77;1.38;;;;;;;22.92;61.61;96308.28;4975377;28;20211;-68
2021/08/19 09:22:59;;;;;;;2.22;1.40;;;;;;;22.91;64.40;96303.16;4974205;28;20631;-68
2021/08/19 09:25:29;;;;;;;3.30;1.50;;;;;;;22.75;62.87;96306.75;4974301;28;20593;-68
2021/08/19 09:28:24;;;;;;;2.90;1.35;;;;;;;22.97;61.19;96304.84;4974421;28;20208;-68
2021/08/19 09:30:52;;;;;;;2.67;1.50;;;;;;;23.17;61.15;96307.81;4940897;28;20226;-68
2021/08/19 09:33:23;;;;;;;2.60;1.42;;;;;;;23.30;61.28;96313.59;4974450;28;20207;-68
2021/08/19 09:35:50;;;;;;;3.10;1.63;;;;;;;22.91;62.77;96314.75;4973912;28;20207;-68
2021/08/19 09:38:19;;;;;;;5.40;1.60;;;;;;;23.44;61.18;96310.22;4974735;28;20214;-68
2021/08/19 09:41:11;;;;;;;3.03;1.60;;;;;;;23.68;60.88;96308.84;4974893;28;20207;-68
2021/08/19 09:43:45;;;;;;;2.00;1.38;;;;;;;23.40;61.16;96306.41;4974581;28;20884;-68
2021/08/19 09:46:14;;;;;;;3.22;1.50;;;;;;;23.81;60.22;96300.34;4974017;28;20221;-68
2021/08/19 09:48:41;;;;;;;3.92;1.98;;;;;;;24.26;60.03;96298.81;4974080;28;20671;-68
2021/08/19 09:51:16;;;;;;;3.42;1.63;;;;;;;24.42;58.64;96310.53;4974823;28;20256;-68
2021/08/19 09:53:46;;;;;;;2.15;1.55;;;;;;;23.93;57.11;96309.09;4975181;28;20321;-68
2021/08/19 09:56:25;;;;;;;2.08;1.30;;;;;;;24.25;59.38;96299.06;4973513;28;20211;-68
2021/08/19 09:58:52;;;;;;;3.65;1.40;;;;;;;24.06;58.61;96303.25;4971057;28;20293;-68
2021/08/19 10:01:19;;;;;;;2.60;1.40;;;;;;;24.73;59.20;96302.31;4975899;28;20211;-68
2021/08/19 10:03:46;;;;;;;3.25;1.35;;;;;;;24.67;58.98;96296.09;4977507;28;20730;-68
2021/08/19 10:06:13;;;;;;;3.72;1.80;;;;;;;24.35;60.01;96296.41;4976941;28;20211;-68
2021/08/19 10:08:40;;;;;;;4.07;1.98;;;;;;;23.08;59.79;96301.25;4977663;28;20586;-68
2021/08/19 10:11:07;;;;;;;6.82;2.90;;;;;;;22.91;61.43;96297.78;4978259;28;20216;-68
2021/08/19 10:13:35;;;;;;;2.55;1.50;;;;;;;23.04;61.37;96298.25;4977809;28;20250;-68
2021/08/19 10:16:02;;;;;;;2.60;1.55;;;;;;;23.14;61.28;96292.16;4976983;28;20207;-68
2021/08/19 10:18:32;;;;;;;2.70;1.70;;;;;;;22.87;62.67;96289.44;4977812;28;20219;-68
2021/08/19 10:21:03;;;;;;;2.15;1.20;;;;;;;23.12;62.24;96288.94;4977508;28;20234;-68
2021/08/19 10:23:31;;;;;;;2.47;1.27;;;;;;;22.94;61.90;96292.72;4977803;28;20226;-68
2021/08/19 10:26:02;;;;;;;3.05;1.45;;;;;;;23.14;60.86;96286.78;4976735;28;20235;-68
2021/08/19 10:28:47;;;;;;;1.42;1.25;;;;;;;23.42;61.01;96279.25;4977810;28;20222;-68
2021/08/19 10:31:14;;;;;;;3.70;1.40;;;;;;;23.65;61.15;96281.63;4977873;28;20298;-68
2021/08/19 10:33:44;;;;;;;3.83;1.38;;;;;;;23.63;59.33;96284.56;4977908;28;20251;-68
2021/08/19 10:36:49;;;;;;;4.03;1.58;;;;;;;23.77;58.79;96280.41;4975936;28;20318;-68
2021/08/19 10:39:32;;;;;;;5.00;1.60;;;;;;;23.41;60.68;96278.47;4977802;28;20211;-68
2021/08/19 10:41:59;;;;;;;2.40;1.50;;;;;;;22.95;62.57;96278.25;4977367;28;20211;-67
2021/08/19 10:44:32;;;;;;;2.25;1.42;;;;;;;23.11;62.76;96276.56;4976878;28;20242;-67
2021/08/19 10:46:59;;;;;;;1.85;1.30;;;;;;;22.78;62.29;96274.00;4976504;28;20207;-69
2021/08/19 10:49:40;;;;;;;4.32;1.30;;;;;;;22.89;62.65;96273.06;4977295;28;20774;-69
2021/08/19 10:52:31;;;;;;;2.55;1.38;;;;;;;22.94;63.56;96273.91;4976668;28;20748;-69
2021/08/19 10:55:20;;;;;;;4.70;1.60;;;;;;;22.90;64.51;96274.69;4961630;28;20246;-69
2021/08/19 10:57:53;;;;;;;2.10;1.50;;;;;;;22.99;66.54;96271.31;4974509;28;21029;-69
2021/08/19 11:00:36;;;;;;;3.83;1.42;;;;;;;23.17;62.56;96270.16;4977181;28;20211;-69
2021/08/19 11:03:03;;;;;;;2.33;1.50;;;;;;;23.04;63.42;96274.06;4976701;28;20214;-69
2021/08/19 11:05:56;;;;;;;2.75;1.27;;;;;;;23.26;63.38;96272.13;4977019;28;20231;-69
2021/08/19 11:08:41;;;;;;;6.30;1.40;;;;;;;23.20;61.38;96275.03;4976679;28;20231;-69
2021/08/19 11:11:08;;;;;;;3.75;1.60;;;;;;;23.39;63.31;96269.03;4976547;28;20218;-69
2021/08/19 11:13:35;;;;;;;4.60;1.60;;;;;;;23.55;62.21;96268.91;4976042;28;21018;-69
2021/08/19 11:16:07;;;;;;;3.33;1.60;;;;;;;23.86;59.87;96270.78;4976032;28;20210;-69
2021/08/19 11:18:34;;;;;;;4.38;1.48;;;;;;;23.55;59.50;96273.50;4976502;28;20268;-69
2021/08/19 11:21:03;;;;;;;3.92;1.63;;;;;;;23.84;58.31;96272.94;4976309;28;20207;-69
2021/08/19 11:23:30;;;;;;;5.03;1.90;;;;;;;23.95;61.36;96271.94;4976966;28;20891;-69
2021/08/19 11:26:01;;;;;;;2.25;1.50;;;;;;;24.40;59.81;96273.06;4975449;28;21253;-69
2021/08/19 11:28:35;;;;;;;4.10;1.60;;;;;;;24.40;58.14;96267.69;4976749;28;20211;-69
2021/08/19 11:31:10;;;;;;;3.28;1.70;;;;;;;24.49;56.96;96265.28;4975860;28;20710;-69
2021/08/19 11:33:38;;;;;;;3.78;1.70;;;;;;;24.19;57.91;96265.09;4976726;28;20273;-69
2021/08/19 11:36:05;;;;;;;3.92;1.80;;;;;;;24.20;57.97;96261.34;4975690;28;20237;-69